M I D A S
Marine Information and Data Acquisition System
Tripno 972 of the Zeeleeuw from 2005-10-17 06:25:46 to 2005-10-17 15:25:52
Back to CruiseResearch ActivitiesStationsMapUnderway DataData graphs

EquipmentUnitsComment
TimeDGPSUTC
LatitudeDGPSDM.mWGS84
LongitudeDGPSDM.mWGS84
HeadingGyrodeg 
SOGDGPSknotsSpeed over ground
COGDGPSdegCourse over ground
DepthEcho soundermeters200 kHz
Missing or incorrect values are displayed as -999
Navigation data collected by the RV Zeeleeuw from 2005-10-17 06:28:52 to 2005-10-17 15:35:43
                                                                                    Next 1000 lines
Time Latitude Longitude Heading SOG COG Depth
2005-10-17 06:29:02 51°13.604 2°56.095 113.9 1.2 295 5
2005-10-17 06:29:07 51°13.604 2°56.092 113.9 1.6 291 5.1
2005-10-17 06:29:12 51°13.605 2°56.088 114.3 1.9 294 5.5
2005-10-17 06:29:18 51°13.607 2°56.082 114.7 2.2 293 -999
2005-10-17 06:29:23 51°13.608 2°56.077 115.1 2.4 295 -999
2005-10-17 06:29:28 51°13.61 2°56.072 115.5 2.6 294 -999
2005-10-17 06:29:33 51°13.611 2°56.066 116 2.8 295 -999
2005-10-17 06:29:38 51°13.613 2°56.06 116.3 2.9 294 -999
2005-10-17 06:29:43 51°13.615 2°56.054 116.4 3.1 295 -999
2005-10-17 06:29:48 51°13.616 2°56.047 116.2 3.2 295 -999
2005-10-17 06:29:53 51°13.618 2°56.041 115.9 3.3 293 -999
2005-10-17 06:29:58 51°13.62 2°56.034 115.5 3.4 293 -999
2005-10-17 06:30:03 51°13.621 2°56.027 115.2 3.4 292 -999
2005-10-17 06:30:08 51°13.623 2°56.019 115 3.5 292 -999
2005-10-17 06:30:12 51°13.625 2°56.013 114.9 3.5 291 -999
2005-10-17 06:30:18 51°13.627 2°56.005 115.2 3.6 291 -999
2005-10-17 06:30:23 51°13.629 2°55.997 115.8 3.6 291 -999
2005-10-17 06:30:28 51°13.631 2°55.99 116.8 3.7 293 -999
2005-10-17 06:30:32 51°13.632 2°55.984 118.2 3.7 293 -999
2005-10-17 06:30:38 51°13.635 2°55.975 119.5 3.7 294 -999
2005-10-17 06:30:43 51°13.637 2°55.967 121 3.8 295 -999
2005-10-17 06:30:48 51°13.64 2°55.959 121.9 4 297 -999
2005-10-17 06:30:52 51°13.642 2°55.953 123 4 298 -999
2005-10-17 06:30:58 51°13.645 2°55.943 123.9 4.1 298 -999
2005-10-17 06:31:03 51°13.648 2°55.936 124.4 4.1 299 -999
2005-10-17 06:31:08 51°13.651 2°55.928 124.8 4.1 300 -999
2005-10-17 06:31:12 51°13.653 2°55.922 125 4.1 301 -999
2005-10-17 06:31:18 51°13.657 2°55.912 125 4.2 301 -999
2005-10-17 06:31:23 51°13.66 2°55.904 125 4.1 301 -999
2005-10-17 06:31:28 51°13.663 2°55.896 124.8 4.1 301 -999
2005-10-17 06:31:32 51°13.665 2°55.89 124.4 4.1 301 -999
2005-10-17 06:31:38 51°13.669 2°55.881 123.7 4.2 301 -999
2005-10-17 06:31:43 51°13.672 2°55.872 122.8 4.2 300 -999
2005-10-17 06:31:48 51°13.674 2°55.865 121.8 4.2 299 -999
2005-10-17 06:31:52 51°13.676 2°55.858 120.5 4.2 299 -999
2005-10-17 06:31:58 51°13.679 2°55.848 119 4.2 297 -999
2005-10-17 06:32:03 51°13.681 2°55.839 117.4 4.2 295 -999
2005-10-17 06:32:08 51°13.683 2°55.831 115.5 4.2 294 -999
2005-10-17 06:32:12 51°13.685 2°55.824 113.6 4.2 292 -999
2005-10-17 06:32:18 51°13.687 2°55.813 111.7 4.3 290 -999
2005-10-17 06:32:23 51°13.689 2°55.804 109.9 4.3 289 -999
2005-10-17 06:32:28 51°13.691 2°55.796 108.1 4.1 287 -999
2005-10-17 06:32:32 51°13.692 2°55.789 106.2 4 286 -999
2005-10-17 06:32:38 51°13.694 2°55.778 104.3 4 284 -999
2005-10-17 06:32:43 51°13.695 2°55.77 102.3 4 282 -999
2005-10-17 06:32:48 51°13.696 2°55.761 100.3 3.9 281 -999
2005-10-17 06:32:52 51°13.696 2°55.755 98.7 3.8 280 -999
2005-10-17 06:32:58 51°13.697 2°55.746 97.2 3.3 279 -999
2005-10-17 06:33:03 51°13.698 2°55.742 95.7 3 279 -999
2005-10-17 06:33:08 51°13.698 2°55.741 91.4 1.1 290 -999
2005-10-17 06:33:13 51°13.699 2°55.74 85.1 0.5 320 -999
2005-10-17 06:33:18 51°13.699 2°55.741 79.5 0.5 345 11.7
2005-10-17 06:33:22 51°13.7 2°55.741 74.1 0.7 30 11.9
2005-10-17 06:33:28 51°13.701 2°55.743 67.4 1.1 30 11.9
2005-10-17 06:33:32 51°13.703 2°55.744 61.8 1.3 33 -999
2005-10-17 06:33:38 51°13.705 2°55.747 53.8 1.6 30 -999
2005-10-17 06:33:42 51°13.707 2°55.748 47.5 1.8 29 -999
2005-10-17 06:33:48 51°13.711 2°55.75 41.2 2.1 23 12
2005-10-17 06:33:52 51°13.713 2°55.752 34.9 2.1 23 12.1
2005-10-17 06:33:58 51°13.716 2°55.753 28.6 2.5 14 12
2005-10-17 06:34:02 51°13.721 2°55.754 22.5 2.4 9 11.6
2005-10-17 06:34:08 51°13.725 2°55.754 16.3 2.2 4 10.9
2005-10-17 06:34:12 51°13.729 2°55.754 11.6 3 -999 10.2
2005-10-17 06:34:16 51°13.732 2°55.753 4.3 3.2 354 9.7
2005-10-17 06:34:22 51°13.738 2°55.751 359.2 3.2 348 8.9
2005-10-17 06:34:28 51°13.743 2°55.748 352.7 3.3 344 7.8
2005-10-17 06:34:32 51°13.746 2°55.745 346.1 3.5 336 7.4
2005-10-17 06:34:36 51°13.75 2°55.742 337.7 3.7 328 7.2
2005-10-17 06:34:42 51°13.755 2°55.735 331.6 3.8 323 6.9
2005-10-17 06:34:48 51°13.76 2°55.728 323.5 4 316 6.8
2005-10-17 06:34:52 51°13.763 2°55.722 319.5 4.3 316 6.9
2005-10-17 06:34:58 51°13.769 2°55.712 317.9 4.8 313 7.1
2005-10-17 06:35:02 51°13.773 2°55.705 317 5.1 313 7
2005-10-17 06:35:08 51°13.779 2°55.695 317 5.6 314 7.1
2005-10-17 06:35:12 51°13.784 2°55.687 317.1 5.9 313 7.2
2005-10-17 06:35:18 51°13.791 2°55.675 317.7 6.1 315 7.6
2005-10-17 06:35:22 51°13.797 2°55.667 319.3 6.5 317 8.2
2005-10-17 06:35:27 51°13.804 2°55.658 321.4 7 320 8.9
2005-10-17 06:35:32 51°13.812 2°55.648 324.1 7.3 323 8.8
2005-10-17 06:35:38 51°13.823 2°55.637 327.8 7.4 325 9
2005-10-17 06:35:43 51°13.832 2°55.627 330.1 7.7 327 8.8
2005-10-17 06:35:48 51°13.842 2°55.618 331.7 8 328 8.7
2005-10-17 06:35:52 51°13.85 2°55.611 333.4 8 328 8.4
2005-10-17 06:35:58 51°13.863 2°55.601 335.6 8.4 332 8.4
2005-10-17 06:36:02 51°13.871 2°55.594 337.1 8.5 334 8.5
2005-10-17 06:36:08 51°13.884 2°55.584 338.7 8.6 335 8.2
2005-10-17 06:36:12 51°13.893 2°55.578 339.1 8.7 334 8.1
2005-10-17 06:36:17 51°13.904 2°55.57 339.9 8.8 336 8.2
2005-10-17 06:36:22 51°13.915 2°55.562 341 8.9 336 8.5
2005-10-17 06:36:28 51°13.929 2°55.553 341.3 9 337 -999
2005-10-17 06:36:32 51°13.938 2°55.546 341.7 9 337 8.5
2005-10-17 06:36:38 51°13.953 2°55.537 342.2 9.2 337 8.6
2005-10-17 06:36:42 51°13.962 2°55.53 342.2 9.2 337 8.4
2005-10-17 06:36:48 51°13.976 2°55.521 341.6 9.2 337 8.5
2005-10-17 06:36:52 51°13.986 2°55.515 341.9 9.3 338 8.9
2005-10-17 06:36:57 51°13.998 2°55.506 342.1 9.3 337 9
2005-10-17 06:37:02 51°14.009 2°55.498 342 9.3 337 9
2005-10-17 06:37:08 51°14.024 2°55.489 342.4 9.4 338 9.1
2005-10-17 06:37:12 51°14.034 2°55.482 342.5 9.5 337 9
2005-10-17 06:37:18 51°14.048 2°55.472 342.3 9.6 337 8.6
2005-10-17 06:37:22 51°14.058 2°55.465 341.8 9.6 336 8.7
2005-10-17 06:37:28 51°14.073 2°55.455 341.8 9.7 337 -999
2005-10-17 06:37:33 51°14.085 2°55.446 341.6 9.8 336 -999
2005-10-17 06:37:38 51°14.098 2°55.437 340.8 10 335 -999
2005-10-17 06:37:42 51°14.108 2°55.429 340.7 10 335 8.9
2005-10-17 06:37:48 51°14.123 2°55.417 340.1 10 335 9.1
2005-10-17 06:37:52 51°14.133 2°55.409 338.6 10.2 333 -999
2005-10-17 06:37:58 51°14.148 2°55.396 337.7 10.3 332 -999
2005-10-17 06:38:03 51°14.161 2°55.385 337 10.4 331 -999
2005-10-17 06:38:08 51°14.173 2°55.373 336.3 10.4 330 -999
2005-10-17 06:38:13 51°14.185 2°55.361 334.6 10.4 328 -999
2005-10-17 06:38:18 51°14.197 2°55.347 332.4 10.4 326 -999
2005-10-17 06:38:23 51°14.209 2°55.334 330.9 10.4 325 -999
2005-10-17 06:38:28 51°14.22 2°55.319 328.6 10.5 322 -999
2005-10-17 06:38:33 51°14.231 2°55.304 326.3 10.5 320 -999
2005-10-17 06:38:38 51°14.242 2°55.288 324.4 10.6 318 9.8
2005-10-17 06:38:43 51°14.253 2°55.271 321.7 10.7 315 -999
2005-10-17 06:38:48 51°14.263 2°55.254 320.1 10.7 314 -999
2005-10-17 06:38:52 51°14.271 2°55.239 317.9 10.7 312 10
2005-10-17 06:38:58 51°14.282 2°55.217 315.7 10.8 310 9.1
2005-10-17 06:39:03 51°14.291 2°55.198 314.4 10.9 309 -999
2005-10-17 06:39:07 51°14.299 2°55.183 313.5 10.9 308 9.3
2005-10-17 06:39:12 51°14.308 2°55.164 312.9 10.9 308 9.3
2005-10-17 06:39:17 51°14.317 2°55.145 312.8 10.9 308 9.2
2005-10-17 06:39:22 51°14.327 2°55.126 312.8 10.9 308 9.1
2005-10-17 06:39:28 51°14.338 2°55.103 312.7 11.1 308 9.2
2005-10-17 06:39:32 51°14.345 2°55.088 312.6 11.1 308 9.2
2005-10-17 06:39:38 51°14.357 2°55.064 312.6 11.1 308 9.1
2005-10-17 06:39:42 51°14.364 2°55.048 312.2 11.2 308 9.1
2005-10-17 06:39:48 51°14.376 2°55.025 312.1 11.3 307 9
2005-10-17 06:39:52 51°14.383 2°55.008 312.1 11.3 307 9.1
2005-10-17 06:39:57 51°14.393 2°54.988 312.7 11.4 307 9.1
2005-10-17 06:40:02 51°14.402 2°54.968 313 11.5 306 9.1
2005-10-17 06:40:07 51°14.412 2°54.947 313.8 11.7 306 9
2005-10-17 06:40:12 51°14.421 2°54.926 314.6 11.8 306 9.2
2005-10-17 06:40:16 51°14.429 2°54.909 315.7 11.9 307 9.2
2005-10-17 06:40:22 51°14.442 2°54.884 317.3 11.9 307 9.3
2005-10-17 06:40:28 51°14.455 2°54.86 319.4 12 311 9.1
2005-10-17 06:40:32 51°14.465 2°54.845 321.9 12.1 313 9
2005-10-17 06:40:38 51°14.48 2°54.824 325.3 12.3 316 9
2005-10-17 06:40:43 51°14.494 2°54.807 328.7 12.4 320 9
2005-10-17 06:40:47 51°14.505 2°54.793 331.5 12.5 321 8.8
2005-10-17 06:40:52 51°14.518 2°54.777 332.5 12.5 322 8.5
2005-10-17 06:40:56 51°14.53 2°54.764 333.8 12.5 324 8.6
2005-10-17 06:41:02 51°14.547 2°54.745 335.4 12.5 326 8.6
2005-10-17 06:41:08 51°14.564 2°54.727 337.1 12.5 327 8.4
2005-10-17 06:41:12 51°14.576 2°54.716 338.6 12.5 328 8.4
2005-10-17 06:41:18 51°14.594 2°54.7 340.3 12.4 331 8.4
2005-10-17 06:41:22 51°14.607 2°54.69 341.8 12.4 332 8.3
2005-10-17 06:41:28 51°14.625 2°54.675 343.6 12.4 334 8.2
2005-10-17 06:41:32 51°14.638 2°54.666 345 12.4 335 8.2
2005-10-17 06:41:38 51°14.656 2°54.653 346.2 12.4 335 8.2
2005-10-17 06:41:42 51°14.669 2°54.644 346.5 12.3 335 8.2
2005-10-17 06:41:48 51°14.688 2°54.63 346.5 12.4 336 8.1
2005-10-17 06:41:52 51°14.7 2°54.622 346.7 12.4 337 8.2
2005-10-17 06:41:56 51°14.713 2°54.614 346.8 12.4 338 8.1
2005-10-17 06:42:02 51°14.733 2°54.603 348.3 12.3 341 8
2005-10-17 06:42:08 51°14.752 2°54.593 350.3 12.4 342 8
2005-10-17 06:42:12 51°14.765 2°54.588 352.3 12.3 344 7.9
2005-10-17 06:42:18 51°14.785 2°54.58 354.1 12.2 346 7.8
2005-10-17 06:42:22 51°14.798 2°54.575 355.4 12.2 346 7.9
2005-10-17 06:42:28 51°14.818 2°54.567 356.2 12.2 346 7.7
2005-10-17 06:42:32 51°14.831 2°54.562 356.3 12.2 346 7.6
2005-10-17 06:42:38 51°14.85 2°54.553 355.5 12.2 345 7.7
2005-10-17 06:42:42 51°14.863 2°54.547 354.7 12.2 344 7.6
2005-10-17 06:42:48 51°14.883 2°54.538 353.6 12.2 343 7.5
2005-10-17 06:42:52 51°14.895 2°54.531 352.8 12.1 342 7.5
2005-10-17 06:42:58 51°14.915 2°54.52 351.6 12.2 341 5.6
2005-10-17 06:43:02 51°14.927 2°54.513 350.4 12.2 340 7.4
2005-10-17 06:43:07 51°14.943 2°54.503 349.4 12.2 340 7.4
2005-10-17 06:43:12 51°14.959 2°54.493 348.5 12.2 339 7.3
2005-10-17 06:43:16 51°14.971 2°54.485 347.8 12.2 338 7.2
2005-10-17 06:43:22 51°14.99 2°54.473 347.1 12.2 337 7.1
2005-10-17 06:43:28 51°15.008 2°54.46 346.6 12.2 337 7.1
2005-10-17 06:43:32 51°15.021 2°54.451 346.3 12.1 337 7.1
2005-10-17 06:43:38 51°15.039 2°54.44 346.3 12 339 7.1
2005-10-17 06:43:43 51°15.055 2°54.432 348.2 12 340 6.9
2005-10-17 06:43:48 51°15.071 2°54.425 350.6 12 340 6.9
2005-10-17 06:43:52 51°15.084 2°54.42 353.4 11.8 346 7
2005-10-17 06:43:58 51°15.103 2°54.414 355.8 11.7 348 6.9
2005-10-17 06:44:02 51°15.115 2°54.41 358.2 11.7 349 6.9
2005-10-17 06:44:07 51°15.131 2°54.406 359.8 11.7 351 6.9
2005-10-17 06:44:12 51°15.147 2°54.402 0.7 11.7 351 7
2005-10-17 06:44:16 51°15.16 2°54.399 1.2 11.7 351 7
2005-10-17 06:44:22 51°15.179 2°54.393 1.1 11.6 349 7
2005-10-17 06:44:28 51°15.198 2°54.387 0.2 11.7 348 7.1
2005-10-17 06:44:32 51°15.211 2°54.381 359.2 11.8 347 7.1
2005-10-17 06:44:38 51°15.23 2°54.374 357.8 11.9 346 7.2
2005-10-17 06:44:42 51°15.243 2°54.368 357.1 11.9 345 7.2
2005-10-17 06:44:48 51°15.262 2°54.359 355.7 11.9 345 7.3
2005-10-17 06:44:52 51°15.275 2°54.352 354 12 342 7.3
2005-10-17 06:44:58 51°15.294 2°54.34 352.4 12.1 340 7.3
2005-10-17 06:45:02 51°15.306 2°54.332 350.9 12.1 339 7.4
2005-10-17 06:45:08 51°15.325 2°54.32 349.6 12.2 337 7.5
2005-10-17 06:45:12 51°15.337 2°54.312 348.7 12.2 337 7.5
2005-10-17 06:45:18 51°15.356 2°54.299 348.5 12.3 337 7.6
2005-10-17 06:45:22 51°15.369 2°54.29 348.5 12.3 337 7.6
2005-10-17 06:45:27 51°15.384 2°54.28 348.5 12.3 337 5.7
2005-10-17 06:45:32 51°15.4 2°54.269 348.9 12.4 337 7.8
2005-10-17 06:45:36 51°15.413 2°54.261 349.1 12.3 338 7.9
2005-10-17 06:45:42 51°15.432 2°54.249 349.8 12.4 338 8
2005-10-17 06:45:48 51°15.451 2°54.239 350.5 12.4 340 8
2005-10-17 06:45:52 51°15.465 2°54.233 352.8 12.2 345 8
2005-10-17 06:45:56 51°15.478 2°54.229 356.6 12.2 348 8.1
2005-10-17 06:46:02 51°15.498 2°54.223 358.8 12.1 350 8.1
2005-10-17 06:46:08 51°15.518 2°54.219 1.4 12.2 351 8.3
2005-10-17 06:46:12 51°15.531 2°54.216 2.9 12.2 351 8.4
2005-10-17 06:46:18 51°15.551 2°54.211 3.5 12.2 352 8.4
2005-10-17 06:46:22 51°15.565 2°54.208 3.6 12.2 352 8.6
2005-10-17 06:46:28 51°15.585 2°54.203 3.4 12.2 351 8.6
2005-10-17 06:46:32 51°15.598 2°54.199 2.9 12.2 351 8.6
2005-10-17 06:46:38 51°15.618 2°54.194 2.6 12.3 350 8.7
2005-10-17 06:46:42 51°15.632 2°54.19 2.2 12.3 350 8.7
2005-10-17 06:46:48 51°15.652 2°54.184 1.8 12.3 350 8.9
2005-10-17 06:46:52 51°15.665 2°54.18 1.5 12.3 350 8.9
2005-10-17 06:46:56 51°15.679 2°54.177 1.8 12.3 351 9
2005-10-17 06:47:02 51°15.699 2°54.173 2.9 12.2 352 9
2005-10-17 06:47:07 51°15.716 2°54.17 4.1 12.2 353 9
2005-10-17 06:47:12 51°15.732 2°54.167 5 12.2 353 9.2
2005-10-17 06:47:18 51°15.753 2°54.163 5.3 12.1 354 9.2
2005-10-17 06:47:22 51°15.766 2°54.161 5.4 12.1 354 9.3
2005-10-17 06:47:27 51°15.782 2°54.157 5.4 12 353 9.4
2005-10-17 06:47:32 51°15.799 2°54.154 5 12 353 9.4
2005-10-17 06:47:38 51°15.819 2°54.15 4.6 12.1 353 9.5
2005-10-17 06:47:42 51°15.832 2°54.148 4.5 12.1 354 9.5
2005-10-17 06:47:48 51°15.852 2°54.146 5 12 357 9.6
2005-10-17 06:47:52 51°15.865 2°54.146 7.1 11.9 359 9.5
2005-10-17 06:47:56 51°15.878 2°54.147 9.9 11.5 3 9.7
2005-10-17 06:48:02 51°15.896 2°54.15 13.7 10.7 7 9.6
2005-10-17 06:48:08 51°15.912 2°54.157 18.1 10.3 11 9.7
2005-10-17 06:48:12 51°15.922 2°54.161 22.7 9.7 15 9.7
2005-10-17 06:48:16 51°15.932 2°54.166 26.6 9.1 17 9.9
2005-10-17 06:48:22 51°15.946 2°54.172 27.7 8.9 15 10
2005-10-17 06:48:28 51°15.96 2°54.178 25.8 8.8 14 9.9
2005-10-17 06:48:32 51°15.969 2°54.181 25.1 8.4 15 10
2005-10-17 06:48:36 51°15.977 2°54.185 25 8.1 14 10.1
2005-10-17 06:48:42 51°15.99 2°54.19 25 7.9 14 9.9
2005-10-17 06:48:47 51°16.001 2°54.195 25.2 7.8 15 10
2005-10-17 06:48:52 51°16.01 2°54.199 25.5 7.7 15 10.1
2005-10-17 06:48:56 51°16.018 2°54.203 25.8 7.7 15 10.1
2005-10-17 06:49:02 51°16.03 2°54.208 26.2 7.5 15 10
2005-10-17 06:49:08 51°16.042 2°54.213 26.1 7.4 16 9.9
2005-10-17 06:49:12 51°16.05 2°54.216 25.5 7.4 14 10.1
2005-10-17 06:49:18 51°16.062 2°54.219 23.6 7.3 11 10.1
2005-10-17 06:49:22 51°16.07 2°54.221 21.4 7.4 8 10.1
2005-10-17 06:49:27 51°16.08 2°54.222 18.5 7.4 5 10.1
2005-10-17 06:49:32 51°16.091 2°54.223 16.6 7.3 4 10.1
2005-10-17 06:49:38 51°16.103 2°54.224 14.9 7.4 2 10.2
2005-10-17 06:49:42 51°16.111 2°54.225 14.7 7.4 4 10.2
2005-10-17 06:49:48 51°16.124 2°54.226 15.2 7.4 3 10.2
2005-10-17 06:49:52 51°16.131 2°54.227 15.4 7.1 4 10.2
2005-10-17 06:49:56 51°16.139 2°54.228 16.3 6.8 4 10.1
2005-10-17 06:50:02 51°16.15 2°54.229 17.5 6.4 6 10.2
2005-10-17 06:50:08 51°16.16 2°54.231 18.4 6.1 5 10.2
2005-10-17 06:50:12 51°16.166 2°54.233 19.2 5.9 7 10.3
2005-10-17 06:50:16 51°16.172 2°54.234 21.3 5.5 9 10.3
2005-10-17 06:50:22 51°16.181 2°54.237 24 5.2 13 10.3
2005-10-17 06:50:27 51°16.187 2°54.24 26.7 5 16 10.4
2005-10-17 06:50:32 51°16.193 2°54.244 29.6 4.9 17 10.3
2005-10-17 06:50:38 51°16.2 2°54.249 33.1 4.4 24 10.3
2005-10-17 06:50:42 51°16.204 2°54.252 36.4 4.4 24 10.2
2005-10-17 06:50:47 51°16.208 2°54.256 41.3 3.6 30 10.3
2005-10-17 06:50:52 51°16.211 2°54.261 44.1 3.3 37 10.3
2005-10-17 06:50:57 51°16.215 2°54.265 47.1 3.3 37 10.3
2005-10-17 06:51:03 51°16.218 2°54.269 48.4 2.9 39 10.3
2005-10-17 06:51:08 51°16.22 2°54.273 50 2.5 43 10.3
2005-10-17 06:51:12 51°16.222 2°54.275 51.5 2.2 41 10.4
2005-10-17 06:51:18 51°16.223 2°54.278 53.2 1.6 41 10.3
2005-10-17 06:51:22 51°16.224 2°54.279 53.7 1.3 37 10.3
2005-10-17 06:51:28 51°16.225 2°54.28 52.3 0.9 26 10.3
2005-10-17 06:51:32 51°16.226 2°54.281 49.4 0.8 19 10.3
2005-10-17 06:51:38 51°16.227 2°54.281 47.7 0.9 20 10.3
2005-10-17 06:51:42 51°16.228 2°54.281 45.9 0.7 20 10.3
2005-10-17 06:51:48 51°16.229 2°54.282 44.1 0.7 10 10.3
2005-10-17 06:51:52 51°16.23 2°54.281 42.8 0.6 4 10.3
2005-10-17 06:51:56 51°16.231 2°54.281 41.5 0.6 359 10.3
2005-10-17 06:52:02 51°16.232 2°54.281 41.1 0.6 356 10.3
2005-10-17 06:52:08 51°16.233 2°54.281 40.5 0.7 345 10.3
2005-10-17 06:52:12 51°16.233 2°54.28 40.3 0.6 343 10.4
2005-10-17 06:52:18 51°16.234 2°54.28 39.9 0.7 333 10.3
2005-10-17 06:52:22 51°16.235 2°54.279 39.8 0.6 339 10.3
2005-10-17 06:52:28 51°16.236 2°54.278 39.8 0.6 339 10.3
2005-10-17 06:52:32 51°16.236 2°54.278 39.7 0.6 321 10.3
2005-10-17 06:52:36 51°16.237 2°54.277 39.6 0.6 316 10.3
2005-10-17 06:52:42 51°16.237 2°54.276 40 0.6 310 10.2
2005-10-17 06:52:48 51°16.238 2°54.275 40.3 0.6 307 10.3
2005-10-17 06:52:52 51°16.238 2°54.274 40.5 0.4 309 10.3
2005-10-17 06:52:58 51°16.239 2°54.273 40.8 0.5 303 10.3
2005-10-17 06:53:02 51°16.239 2°54.272 41.3 0.5 301 10.3
2005-10-17 06:53:08 51°16.239 2°54.27 41.7 0.6 292 10.4
2005-10-17 06:53:12 51°16.239 2°54.27 42.2 0.6 290 10.4
2005-10-17 06:53:18 51°16.24 2°54.268 42.9 0.6 292 10.3
2005-10-17 06:53:23 51°16.24 2°54.267 43.5 0.6 285 10.4
2005-10-17 06:53:28 51°16.24 2°54.266 43.7 0.5 277 10.4
2005-10-17 06:53:32 51°16.24 2°54.264 44 0.7 279 10.3
2005-10-17 06:53:38 51°16.24 2°54.262 44.3 0.6 270 10.4
2005-10-17 06:53:42 51°16.24 2°54.261 44.3 0.6 265 10.4
2005-10-17 06:53:48 51°16.24 2°54.26 44.3 0.8 275 10.3
2005-10-17 06:53:52 51°16.24 2°54.258 44.8 0.8 275 10.3
2005-10-17 06:53:58 51°16.24 2°54.256 44.8 0.8 270 10.3
2005-10-17 06:54:02 51°16.24 2°54.255 44.8 0.7 259 10.3
2005-10-17 06:54:08 51°16.24 2°54.253 44.6 0.8 266 10.3
2005-10-17 06:54:12 51°16.239 2°54.252 44.3 0.9 260 10.3
2005-10-17 06:54:16 51°16.239 2°54.25 44.2 1 262 10.3
2005-10-17 06:54:23 51°16.239 2°54.248 44.5 0.8 249 10.3
2005-10-17 06:54:28 51°16.238 2°54.246 44.3 0.9 259 10.3
2005-10-17 06:54:32 51°16.238 2°54.244 44.2 0.9 257 10.4
2005-10-17 06:54:36 51°16.238 2°54.242 44.2 1 256 10.4
2005-10-17 06:54:43 51°16.238 2°54.239 44.2 0.9 250 10.4
2005-10-17 06:54:48 51°16.237 2°54.237 44.3 1 252 10.4
2005-10-17 06:54:52 51°16.237 2°54.236 44.3 1.1 256 10.4
2005-10-17 06:54:56 51°16.236 2°54.234 44.3 1 255 10.4
2005-10-17 06:55:03 51°16.236 2°54.231 44.5 1 255 10.5
2005-10-17 06:55:08 51°16.235 2°54.229 44.7 1.2 258 10.5
2005-10-17 06:55:12 51°16.235 2°54.227 44.9 1 245 10.4
2005-10-17 06:55:16 51°16.234 2°54.225 45.2 1.1 248 10.4
2005-10-17 06:55:22 51°16.233 2°54.222 45.5 1.1 252 10.4
2005-10-17 06:55:28 51°16.232 2°54.22 45.6 1.1 247 10.4
2005-10-17 06:55:32 51°16.232 2°54.218 45.8 1.1 249 10.4
2005-10-17 06:55:38 51°16.231 2°54.215 45.9 1.1 245 10.4
2005-10-17 06:55:42 51°16.231 2°54.213 46 1.2 252 10.4
2005-10-17 06:55:48 51°16.23 2°54.21 46 1.2 247 10.4
2005-10-17 06:55:52 51°16.23 2°54.208 46.1 1.2 246 10.4
2005-10-17 06:55:56 51°16.229 2°54.206 46.2 1.2 246 10.5
2005-10-17 06:56:02 51°16.228 2°54.203 46.2 1.2 249 10.5
2005-10-17 06:56:07 51°16.227 2°54.201 46.1 1.2 238 10.5
2005-10-17 06:56:12 51°16.227 2°54.198 46.2 1.3 251 10.4
2005-10-17 06:56:18 51°16.226 2°54.195 46.4 1.3 248 10.4
2005-10-17 06:56:22 51°16.226 2°54.193 46.6 1.2 242 10.4
2005-10-17 06:56:27 51°16.225 2°54.19 46.4 1.4 250 10.5
2005-10-17 06:56:32 51°16.224 2°54.188 46.3 1.4 250 10.4
2005-10-17 06:56:38 51°16.224 2°54.185 46.6 1.4 247 10.3
2005-10-17 06:56:42 51°16.223 2°54.182 46.7 1.4 248 10.4
2005-10-17 06:56:48 51°16.222 2°54.179 46.6 1.3 244 10.4
2005-10-17 06:56:52 51°16.221 2°54.177 46.7 1.3 244 10.4
2005-10-17 06:56:56 51°16.221 2°54.175 46.4 1.3 239 10.4
2005-10-17 06:57:02 51°16.22 2°54.171 46.2 1.4 246 10.4
2005-10-17 06:57:07 51°16.219 2°54.168 46.1 1.5 248 10.4
2005-10-17 06:57:12 51°16.218 2°54.165 46.2 1.4 242 10.5
2005-10-17 06:57:16 51°16.217 2°54.164 46.2 1.3 237 10.5
2005-10-17 06:57:22 51°16.216 2°54.16 45.6 1.5 248 10.5
2005-10-17 06:57:28 51°16.215 2°54.156 45.4 1.4 243 10.5
2005-10-17 06:57:32 51°16.215 2°54.154 45.6 1.5 245 10.4
2005-10-17 06:57:36 51°16.214 2°54.152 45.9 1.5 242 10.5
2005-10-17 06:57:42 51°16.212 2°54.149 45.8 1.5 245 10.4
2005-10-17 06:57:48 51°16.211 2°54.145 45.7 1.6 246 10.5
2005-10-17 06:57:52 51°16.211 2°54.142 46 1.5 244 10.5
2005-10-17 06:57:56 51°16.21 2°54.14 46.2 1.5 242 10.5
2005-10-17 06:58:02 51°16.209 2°54.136 45.9 1.5 245 10.5
2005-10-17 06:58:08 51°16.208 2°54.133 46.1 1.5 243 10.5
2005-10-17 06:58:12 51°16.207 2°54.13 46.2 1.5 244 10.5
2005-10-17 06:58:16 51°16.206 2°54.128 46.3 1.5 239 10.5
2005-10-17 06:58:22 51°16.205 2°54.125 46.4 1.6 240 10.5
2005-10-17 06:58:28 51°16.203 2°54.121 46.4 1.5 239 10.5
2005-10-17 06:58:32 51°16.202 2°54.119 46.6 1.6 240 10.6
2005-10-17 06:58:38 51°16.201 2°54.115 46.7 1.6 239 10.5
2005-10-17 06:58:42 51°16.2 2°54.113 46.7 1.7 248 10.4
2005-10-17 06:58:47 51°16.199 2°54.11 46.9 1.6 239 10.5
2005-10-17 06:58:52 51°16.198 2°54.107 46.7 1.6 243 10.4
2005-10-17 06:58:58 51°16.197 2°54.103 46.6 1.6 242 10.5
2005-10-17 06:59:02 51°16.196 2°54.1 46.6 1.6 243 10.5
2005-10-17 06:59:08 51°16.195 2°54.096 46.5 1.6 245 10.5
2005-10-17 06:59:12 51°16.194 2°54.094 46.5 1.6 238 10.6
2005-10-17 06:59:16 51°16.193 2°54.091 46.3 1.7 246 10.4
2005-10-17 06:59:22 51°16.192 2°54.087 46.3 1.6 241 10.4
2005-10-17 06:59:28 51°16.191 2°54.084 46.4 1.6 245 10.4
2005-10-17 06:59:32 51°16.19 2°54.081 46.4 1.6 245 10.4
2005-10-17 06:59:38 51°16.188 2°54.077 46.4 1.7 245 10.5
2005-10-17 06:59:42 51°16.188 2°54.075 46.2 1.7 242 10.5
2005-10-17 06:59:48 51°16.186 2°54.071 46.1 1.8 247 10.4
2005-10-17 06:59:52 51°16.186 2°54.068 46.3 1.6 236 10.5
2005-10-17 06:59:56 51°16.185 2°54.065 46.3 1.7 242 10.6
2005-10-17 07:00:02 51°16.184 2°54.061 45.7 1.7 237 10.4
2005-10-17 07:00:08 51°16.182 2°54.057 45.8 1.7 246 10.4
2005-10-17 07:00:12 51°16.181 2°54.054 46.1 1.6 240 10.4
2005-10-17 07:00:16 51°16.18 2°54.052 46.1 1.8 243 10.4
2005-10-17 07:00:22 51°16.179 2°54.048 46 1.7 242 10.4
2005-10-17 07:00:28 51°16.178 2°54.044 46 1.7 244 10.5
2005-10-17 07:00:32 51°16.177 2°54.041 46.1 1.6 238 10.5
2005-10-17 07:00:38 51°16.176 2°54.037 45.8 1.7 245 10.5
2005-10-17 07:00:42 51°16.175 2°54.034 45.7 1.6 237 10.5
2005-10-17 07:00:47 51°16.174 2°54.031 45.6 1.7 249 10.5
2005-10-17 07:00:52 51°16.173 2°54.028 45.3 1.7 244 10.5
2005-10-17 07:00:58 51°16.171 2°54.024 45.1 1.6 247 10.5
2005-10-17 07:01:03 51°16.17 2°54.021 45.1 1.5 240 10.6
2005-10-17 07:01:07 51°16.17 2°54.019 45 1.5 247 10.6
2005-10-17 07:01:12 51°16.169 2°54.016 45 1.4 243 10.5
2005-10-17 07:01:17 51°16.168 2°54.013 44.8 1.5 249 10.5
2005-10-17 07:01:23 51°16.167 2°54.009 44.8 1.5 247 10.4
2005-10-17 07:01:28 51°16.167 2°54.006 44.9 1.4 249 10.5
2005-10-17 07:01:32 51°16.166 2°54.004 45 1.4 251 10.5
2005-10-17 07:01:36 51°16.166 2°54.002 45.1 1.3 252 10.5
2005-10-17 07:01:43 51°16.165 2°53.998 45.3 1.2 244 10.5
2005-10-17 07:01:48 51°16.164 2°53.996 45.5 1.1 248 10.6
2005-10-17 07:01:52 51°16.164 2°53.994 45.6 1.1 251 10.6
2005-10-17 07:01:58 51°16.163 2°53.992 45.7 1.1 251 10.5
2005-10-17 07:02:02 51°16.163 2°53.99 46.3 1 249 10.5
2005-10-17 07:02:07 51°16.163 2°53.988 46.9 1 250 10.5
2005-10-17 07:02:12 51°16.162 2°53.986 47.2 0.9 249 10.5
2005-10-17 07:02:16 51°16.162 2°53.984 47.7 0.8 251 10.5
2005-10-17 07:02:22 51°16.162 2°53.982 47.9 0.9 253 10.6
2005-10-17 07:02:27 51°16.161 2°53.98 48.2 0.9 257 10.5
2005-10-17 07:02:32 51°16.161 2°53.978 49 0.8 247 10.5
2005-10-17 07:02:36 51°16.161 2°53.977 49.7 0.8 251 10.5
2005-10-17 07:02:42 51°16.16 2°53.975 50.1 0.9 258 10.5
2005-10-17 07:02:47 51°16.16 2°53.973 50.8 0.7 253 10.6
2005-10-17 07:02:52 51°16.16 2°53.972 51.4 0.6 252 10.6
2005-10-17 07:02:58 51°16.16 2°53.97 51.6 0.7 262 10.6
2005-10-17 07:03:02 51°16.159 2°53.969 51.6 0.7 253 10.6
2005-10-17 07:03:08 51°16.159 2°53.967 52.2 0.7 264 10.6
2005-10-17 07:03:12 51°16.159 2°53.966 52.5 0.6 259 10.6
2005-10-17 07:03:16 51°16.159 2°53.965 52.7 0.6 260 10.6
2005-10-17 07:03:22 51°16.159 2°53.963 52.8 0.7 261 10.6
2005-10-17 07:03:28 51°16.158 2°53.962 52.8 0.7 266 10.6
2005-10-17 07:03:32 51°16.158 2°53.961 53.3 0.5 259 10.7
2005-10-17 07:03:36 51°16.158 2°53.96 53.2 0.6 262 10.7
2005-10-17 07:03:42 51°16.158 2°53.959 53 0.5 258 10.6
2005-10-17 07:03:48 51°16.158 2°53.957 52.9 0.6 269 10.6
2005-10-17 07:03:52 51°16.157 2°53.957 53.5 0.4 262 10.5
2005-10-17 07:03:56 51°16.157 2°53.956 53.7 0.5 263 10.5
2005-10-17 07:04:02 51°16.157 2°53.954 53.7 0.5 262 10.6
2005-10-17 07:04:07 51°16.157 2°53.953 53.3 0.5 263 10.6
2005-10-17 07:04:12 51°16.157 2°53.952 53.2 0.6 262 10.5
2005-10-17 07:04:16 51°16.157 2°53.951 53.3 0.7 264 10.5
2005-10-17 07:04:22 51°16.157 2°53.949 53.7 0.6 259 10.6
2005-10-17 07:04:28 51°16.156 2°53.947 53.8 0.6 241 10.7
2005-10-17 07:04:32 51°16.156 2°53.946 53.9 0.6 252 10.6
2005-10-17 07:04:36 51°16.156 2°53.945 53.7 0.8 257 10.6
2005-10-17 07:04:42 51°16.156 2°53.943 54.1 0.8 249 10.6
2005-10-17 07:04:48 51°16.155 2°53.941 54.2 0.8 248 10.6
2005-10-17 07:04:52 51°16.155 2°53.94 54.5 0.8 245 10.6
2005-10-17 07:04:56 51°16.154 2°53.938 54.7 0.9 252 10.6
2005-10-17 07:05:02 51°16.154 2°53.936 54.7 0.8 241 10.7
2005-10-17 07:05:08 51°16.153 2°53.934 55 0.9 243 10.7
2005-10-17 07:05:12 51°16.153 2°53.932 55.1 1 240 10.6
2005-10-17 07:05:16 51°16.152 2°53.93 55.2 1 247 10.5
2005-10-17 07:05:22 51°16.152 2°53.928 55.8 1 239 10.4
2005-10-17 07:05:28 51°16.151 2°53.925 56.1 1.1 251 10.5
2005-10-17 07:05:32 51°16.15 2°53.924 56 1.1 240 10.6
2005-10-17 07:05:38 51°16.149 2°53.921 56.1 1.1 247 10.6
2005-10-17 07:05:43 51°16.149 2°53.919 56.1 1.1 245 10.6
2005-10-17 07:05:48 51°16.148 2°53.917 56.1 1.2 249 10.6
2005-10-17 07:05:52 51°16.148 2°53.915 55.9 1.2 246 10.6
2005-10-17 07:05:58 51°16.147 2°53.912 55.9 1.1 242 10.6
2005-10-17 07:06:02 51°16.146 2°53.91 55.9 1.1 242 10.6
2005-10-17 07:06:08 51°16.146 2°53.907 56.1 1.2 243 10.7
2005-10-17 07:06:12 51°16.145 2°53.905 56 1.3 239 10.6
2005-10-17 07:06:16 51°16.144 2°53.903 55.8 1.3 245 10.6
2005-10-17 07:06:22 51°16.143 2°53.9 56.1 1.3 241 10.6
2005-10-17 07:06:28 51°16.142 2°53.897 56.5 1.3 248 10.6
2005-10-17 07:06:32 51°16.141 2°53.895 56.5 1.3 244 10.6
2005-10-17 07:06:38 51°16.141 2°53.892 56.6 1.3 244 10.6
2005-10-17 07:06:42 51°16.14 2°53.89 56.7 1.3 241 10.7
2005-10-17 07:06:48 51°16.139 2°53.886 56.6 1.4 240 10.6
2005-10-17 07:06:52 51°16.138 2°53.884 56.8 1.4 243 10.5
2005-10-17 07:06:56 51°16.137 2°53.882 57.3 1.5 243 10.4
2005-10-17 07:07:02 51°16.136 2°53.879 57.7 1.5 243 10.5
2005-10-17 07:07:07 51°16.135 2°53.876 58.1 1.4 242 10.5
2005-10-17 07:07:12 51°16.134 2°53.873 58.5 1.4 238 10.5
2005-10-17 07:07:16 51°16.133 2°53.871 58.8 1.4 235 10.6
2005-10-17 07:07:22 51°16.131 2°53.868 58.8 1.4 236 10.7
2005-10-17 07:07:28 51°16.13 2°53.865 58.9 1.5 243 10.7
2005-10-17 07:07:32 51°16.129 2°53.862 59.2 1.6 237 10.7
2005-10-17 07:07:38 51°16.128 2°53.859 59.3 1.5 238 10.7
2005-10-17 07:07:42 51°16.127 2°53.856 59.4 1.6 243 10.6
2005-10-17 07:07:48 51°16.125 2°53.853 59.8 1.5 233 10.6
2005-10-17 07:07:52 51°16.124 2°53.85 60 1.5 234 10.7
2005-10-17 07:07:56 51°16.124 2°53.849 60 1.5 237 10.6
2005-10-17 07:08:02 51°16.122 2°53.845 60 1.5 239 10.7
2005-10-17 07:08:08 51°16.121 2°53.841 59.9 1.5 237 10.6
2005-10-17 07:08:12 51°16.12 2°53.839 60 1.6 243 10.7
2005-10-17 07:08:18 51°16.119 2°53.835 60 1.6 245 10.7
2005-10-17 07:08:22 51°16.118 2°53.833 60 1.6 241 10.7
2005-10-17 07:08:28 51°16.116 2°53.829 60 1.6 241 10.7
2005-10-17 07:08:32 51°16.116 2°53.827 60 1.6 239 10.7
2005-10-17 07:08:38 51°16.114 2°53.823 60.1 1.5 241 10.6
2005-10-17 07:08:43 51°16.113 2°53.82 60.2 1.6 236 10.7
2005-10-17 07:08:48 51°16.112 2°53.817 60.3 1.6 232 10.7
2005-10-17 07:08:52 51°16.111 2°53.815 60.1 1.7 238 10.6
2005-10-17 07:08:56 51°16.11 2°53.812 60.1 1.6 242 10.5
2005-10-17 07:09:03 51°16.109 2°53.808 60.6 1.5 236 10.6
2005-10-17 07:09:08 51°16.108 2°53.806 60.2 1.2 240 10.6
2005-10-17 07:09:12 51°16.108 2°53.805 60 1.1 249 10.6
2005-10-17 07:09:18 51°16.108 2°53.803 59.8 0.7 249 10.7
2005-10-17 07:09:22 51°16.108 2°53.803 58.4 0.6 258 10.7
2005-10-17 07:09:28 51°16.109 2°53.802 54.7 0.5 313 10.7
2005-10-17 07:09:32 51°16.11 2°53.802 47.9 0.9 350 10.7
2005-10-17 07:09:38 51°16.112 2°53.802 42.5 1.3 352 10.7
2005-10-17 07:09:42 51°16.114 2°53.801 35.7 1.7 350 10.7
2005-10-17 07:09:47 51°16.117 2°53.8 27.4 2.1 343 10.6
2005-10-17 07:09:52 51°16.121 2°53.797 20.3 2.4 339 10.7
2005-10-17 07:09:58 51°16.125 2°53.793 12.6 2.8 332 10.7
2005-10-17 07:10:02 51°16.128 2°53.79 5.1 3.3 323 10.7
2005-10-17 07:10:08 51°16.132 2°53.783 359.1 3.6 318 10.7
2005-10-17 07:10:12 51°16.135 2°53.777 351.2 3.9 313 10.7
2005-10-17 07:10:18 51°16.139 2°53.768 341.8 4.3 306 10.7
2005-10-17 07:10:22 51°16.142 2°53.76 335.7 4.6 299 10.8
2005-10-17 07:10:28 51°16.145 2°53.748 328.1 5 293 10.8
2005-10-17 07:10:32 51°16.146 2°53.739 320.3 5.1 288 10.9
2005-10-17 07:10:38 51°16.148 2°53.725 310.9 5.4 280 10.8
2005-10-17 07:10:43 51°16.148 2°53.713 304.7 5.5 274 10.7
2005-10-17 07:10:48 51°16.147 2°53.7 296.4 5.6 271 10.6
2005-10-17 07:10:52 51°16.147 2°53.689 286.6 6 265 10.7
2005-10-17 07:10:56 51°16.146 2°53.677 279.5 6.5 263 10.8
2005-10-17 07:11:03 51°16.144 2°53.655 276.5 6.7 262 11
2005-10-17 07:11:08 51°16.143 2°53.636 275.5 8.1 264 10.9
2005-10-17 07:11:12 51°16.143 2°53.62 277.7 8.8 271 11
2005-10-17 07:11:18 51°16.144 2°53.595 282.7 9.4 272 10.9
2005-10-17 07:11:22 51°16.146 2°53.577 287.5 9.6 274 10.9
2005-10-17 07:11:28 51°16.147 2°53.55 288 10.3 274 11
2005-10-17 07:11:32 51°16.148 2°53.53 287.2 10.8 275 11
2005-10-17 07:11:36 51°16.149 2°53.51 287.3 11.2 274 10.9
2005-10-17 07:11:42 51°16.15 2°53.48 286.1 11.5 273 11
2005-10-17 07:11:48 51°16.151 2°53.448 285.3 11.7 273 10.8
2005-10-17 07:11:52 51°16.151 2°53.427 283.8 12.1 272 11
2005-10-17 07:11:58 51°16.152 2°53.394 282.5 12.4 271 11
2005-10-17 07:12:02 51°16.152 2°53.371 281.6 12.7 271 10.8
2005-10-17 07:12:08 51°16.153 2°53.337 280.9 12.9 272 10.9
2005-10-17 07:12:12 51°16.153 2°53.313 281 13.2 271 11.1
2005-10-17 07:12:18 51°16.153 2°53.277 280 13.3 271 10.9
2005-10-17 07:12:22 51°16.153 2°53.253 279.5 13.5 270 10.8
2005-10-17 07:12:28 51°16.153 2°53.217 279 13.6 270 10.9
2005-10-17 07:12:32 51°16.153 2°53.193 278.3 13.8 269 11
2005-10-17 07:12:36 51°16.152 2°53.168 277.6 13.8 268 10.9
2005-10-17 07:12:42 51°16.152 2°53.131 277.2 13.9 269 11
2005-10-17 07:12:48 51°16.152 2°53.095 277.8 13.9 270 11.1
2005-10-17 07:12:52 51°16.152 2°53.07 278.7 13.8 270 11
2005-10-17 07:12:58 51°16.153 2°53.034 279.5 13.7 272 11.1
2005-10-17 07:13:02 51°16.154 2°53.009 280.1 13.7 272 11.1
2005-10-17 07:13:07 51°16.155 2°52.979 280.6 13.7 273 11.1
2005-10-17 07:13:12 51°16.156 2°52.949 281 13.6 273 11.1
2005-10-17 07:13:16 51°16.157 2°52.925 281.5 13.7 274 11.1
2005-10-17 07:13:22 51°16.158 2°52.889 281.5 13.7 274 11.1
2005-10-17 07:13:28 51°16.16 2°52.852 281.9 13.7 273 11.2
2005-10-17 07:13:32 51°16.161 2°52.828 281.7 13.7 274 11.2
2005-10-17 07:13:36 51°16.161 2°52.804 281.4 13.7 273 11.2
2005-10-17 07:13:42 51°16.163 2°52.767 281 13.8 273 11.4
2005-10-17 07:13:48 51°16.164 2°52.731 281.2 13.7 272 11.3
2005-10-17 07:13:52 51°16.164 2°52.707 280.8 13.7 273 11.3
2005-10-17 07:13:56 51°16.165 2°52.683 280.6 13.7 272 11.2
2005-10-17 07:14:02 51°16.166 2°52.646 280.6 13.8 274 11.4
2005-10-17 07:14:08 51°16.168 2°52.609 281.8 13.7 274 11.4
2005-10-17 07:14:12 51°16.169 2°52.585 282.3 13.7 274 11.4
2005-10-17 07:14:16 51°16.171 2°52.561 282.8 13.7 276 11.5
2005-10-17 07:14:23 51°16.173 2°52.519 283.4 13.7 275 11.4
2005-10-17 07:14:28 51°16.175 2°52.488 283.8 13.7 276 11.5
2005-10-17 07:14:32 51°16.176 2°52.464 283.8 13.7 275 11.5
2005-10-17 07:14:38 51°16.178 2°52.428 283.3 13.7 275 11.4
2005-10-17 07:14:42 51°16.179 2°52.404 283 13.7 274 11.5
2005-10-17 07:14:47 51°16.181 2°52.374 282.9 13.7 275 11.5
2005-10-17 07:14:52 51°16.182 2°52.343 283 13.7 274 11.5
2005-10-17 07:14:58 51°16.184 2°52.307 282.8 13.7 274 11.5
2005-10-17 07:15:02 51°16.185 2°52.283 282.5 13.7 274 11.6
2005-10-17 07:15:08 51°16.187 2°52.247 282.8 13.7 274 11.5
2005-10-17 07:15:12 51°16.188 2°52.223 283 13.7 275 11.5
2005-10-17 07:15:16 51°16.19 2°52.199 283.3 13.6 275 11.4
2005-10-17 07:15:23 51°16.192 2°52.157 283.2 13.6 275 11.4
2005-10-17 07:15:28 51°16.194 2°52.127 283.1 13.6 275 11.4
2005-10-17 07:15:32 51°16.195 2°52.102 283.4 13.7 275 11.5
2005-10-17 07:15:36 51°16.197 2°52.078 283.9 13.7 275 11.5
2005-10-17 07:15:42 51°16.199 2°52.043 283.8 13.6 275 11.5
2005-10-17 07:15:48 51°16.2 2°52.006 283.6 13.6 275 11.5
2005-10-17 07:15:52 51°16.202 2°51.982 283.3 13.7 274 11.7
2005-10-17 07:15:56 51°16.203 2°51.958 283.4 13.6 275 11.6
2005-10-17 07:16:02 51°16.205 2°51.922 283.6 13.6 275 11.6
2005-10-17 07:16:08 51°16.207 2°51.886 283.6 13.6 275 11.6
2005-10-17 07:16:12 51°16.208 2°51.862 283.7 13.6 275 11.6
2005-10-17 07:16:18 51°16.21 2°51.826 283.4 13.6 274 11.6
2005-10-17 07:16:22 51°16.211 2°51.802 283 13.7 274 11.6
2005-10-17 07:16:27 51°16.212 2°51.772 283.4 13.6 274 11.5
2005-10-17 07:16:32 51°16.214 2°51.742 283.4 13.6 275 11.5
2005-10-17 07:16:38 51°16.216 2°51.706 283.1 13.7 274 11.5
2005-10-17 07:16:42 51°16.217 2°51.682 283 13.6 274 11.4
2005-10-17 07:16:47 51°16.218 2°51.652 283 13.6 274 11.4
2005-10-17 07:16:52 51°16.22 2°51.622 283 13.7 274 11.5
2005-10-17 07:16:56 51°16.221 2°51.598 283.1 13.6 275 11.4
2005-10-17 07:17:02 51°16.223 2°51.562 283.1 13.6 275 11.4
2005-10-17 07:17:08 51°16.224 2°51.526 283.1 13.6 274 11.3
2005-10-17 07:17:12 51°16.225 2°51.502 282.8 13.6 274 11.2
2005-10-17 07:17:16 51°16.227 2°51.478 282.7 13.6 274 11
2005-10-17 07:17:22 51°16.228 2°51.443 282.9 13.6 274 11.1
2005-10-17 07:17:28 51°16.23 2°51.407 282.9 13.4 274 10.9
2005-10-17 07:17:32 51°16.231 2°51.383 282.4 13.5 275 10.8
2005-10-17 07:17:36 51°16.232 2°51.359 283.2 13.5 275 10.6
2005-10-17 07:17:42 51°16.235 2°51.324 284.1 13.4 276 10.6
2005-10-17 07:17:48 51°16.238 2°51.289 285.2 13.5 277 10.6
2005-10-17 07:17:52 51°16.24 2°51.265 286.6 13.4 278 10.5
2005-10-17 07:17:56 51°16.242 2°51.242 287.7 13.3 279 10.1
2005-10-17 07:18:02 51°16.247 2°51.207 288.6 13.4 279 10.1
2005-10-17 07:18:08 51°16.251 2°51.173 289.5 13.3 281 10.1
2005-10-17 07:18:12 51°16.254 2°51.15 290.1 13.3 281 10.1
2005-10-17 07:18:18 51°16.258 2°51.115 290.7 13.3 282 10.4
2005-10-17 07:18:22 51°16.261 2°51.092 291.2 13.4 281 10.3
2005-10-17 07:18:28 51°16.265 2°51.057 291.2 13.3 281 10.3
2005-10-17 07:18:32 51°16.268 2°51.033 290.9 13.4 280 10.3
2005-10-17 07:18:36 51°16.271 2°51.011 290.7 13.3 281 10.2
2005-10-17 07:18:42 51°16.275 2°50.976 290.3 13.3 281 10.2
2005-10-17 07:18:48 51°16.279 2°50.941 290.6 13.3 281 10.2
2005-10-17 07:18:52 51°16.282 2°50.918 290.4 13.4 281 10.2
2005-10-17 07:18:58 51°16.287 2°50.884 291.1 13.3 284 10.2
2005-10-17 07:19:02 51°16.291 2°50.861 293 13.3 284 10.2
2005-10-17 07:19:07 51°16.296 2°50.833 293.9 13.3 284 10.3
2005-10-17 07:19:12 51°16.301 2°50.805 295 13.2 286 10.2
2005-10-17 07:19:18 51°16.308 2°50.771 295.9 13.2 286 10
2005-10-17 07:19:22 51°16.312 2°50.749 296.3 13.3 287 9.7
2005-10-17 07:19:28 51°16.318 2°50.715 296.8 13.3 287 9.2
2005-10-17 07:19:32 51°16.322 2°50.693 296.8 13.2 287 8.9
2005-10-17 07:19:36 51°16.326 2°50.671 296.6 13 287 8.9
2005-10-17 07:19:43 51°16.335 2°50.633 296.8 13.1 288 8.8
2005-10-17 07:19:48 51°16.341 2°50.606 298.3 13.1 290 8.6
2005-10-17 07:19:52 51°16.346 2°50.584 299.5 13.1 290 8.4
2005-10-17 07:19:58 51°16.354 2°50.552 300.8 13.1 291 8.6
2005-10-17 07:20:03 51°16.362 2°50.526 301.5 13 293 8.1
2005-10-17 07:20:07 51°16.368 2°50.506 303.6 12.9 296 7.7
2005-10-17 07:20:12 51°16.376 2°50.481 306.1 12.6 298 7.6
2005-10-17 07:20:18 51°16.387 2°50.452 308 12.7 299 8
2005-10-17 07:20:22 51°16.395 2°50.434 309.9 12.6 301 8.4
2005-10-17 07:20:28 51°16.406 2°50.405 311.5 12.6 302 8.5
2005-10-17 07:20:32 51°16.413 2°50.385 312.3 12.9 302 8.8
2005-10-17 07:20:36 51°16.421 2°50.367 312.7 13 303 9
2005-10-17 07:20:42 51°16.433 2°50.338 312.8 13.1 303 9.3
2005-10-17 07:20:48 51°16.445 2°50.308 312.8 13.1 302 9.7
2005-10-17 07:20:52 51°16.453 2°50.288 312.3 13.2 302 10
2005-10-17 07:20:56 51°16.46 2°50.268 311.4 13.3 300 9.9
2005-10-17 07:21:02 51°16.47 2°50.237 309.8 13.3 299 10
2005-10-17 07:21:08 51°16.481 2°50.206 308.2 13.2 298 10
2005-10-17 07:21:12 51°16.487 2°50.184 306.9 13.2 296 10.2
2005-10-17 07:21:18 51°16.497 2°50.153 306.3 13.2 296 10.2
2005-10-17 07:21:22 51°16.503 2°50.132 305.5 13.2 295 10.2
2005-10-17 07:21:27 51°16.51 2°50.106 304.9 13.2 295 10.4
2005-10-17 07:21:32 51°16.518 2°50.079 304.8 13.2 295 10.3
2005-10-17 07:21:38 51°16.527 2°50.048 304.9 13.1 295 10.5
2005-10-17 07:21:42 51°16.534 2°50.027 305.3 13.1 295 10.4
2005-10-17 07:21:48 51°16.543 2°49.995 305.3 13.1 295 10.4
2005-10-17 07:21:52 51°16.549 2°49.974 305.5 13.1 295 10.7
2005-10-17 07:21:56 51°16.556 2°49.953 305.6 13.1 295 10.9
2005-10-17 07:22:03 51°16.566 2°49.918 305.6 12.7 295 11
2005-10-17 07:22:08 51°16.573 2°49.894 305.5 12.3 295 11.2
2005-10-17 07:22:12 51°16.578 2°49.876 305.8 11.7 295 11.5
2005-10-17 07:22:18 51°16.586 2°49.851 306.2 10.7 296 11.9
2005-10-17 07:22:23 51°16.593 2°49.833 307.7 10.2 298 12.2
2005-10-17 07:22:27 51°16.599 2°49.82 311.9 9.5 302 12.5
2005-10-17 07:22:32 51°16.606 2°49.805 317.3 8.6 309 13
2005-10-17 07:22:38 51°16.615 2°49.79 323.1 8.1 312 13.2
2005-10-17 07:22:42 51°16.621 2°49.783 329.5 7 318 13.4
2005-10-17 07:22:48 51°16.629 2°49.774 335.8 6.2 323 13.4
2005-10-17 07:22:52 51°16.635 2°49.769 339.8 5.7 326 13.6
2005-10-17 07:22:56 51°16.64 2°49.765 344.5 5.3 331 13.7
2005-10-17 07:23:02 51°16.647 2°49.759 349.5 5.1 332 13.6
2005-10-17 07:23:08 51°16.653 2°49.755 354.9 4.3 341 13.6
2005-10-17 07:23:12 51°16.658 2°49.754 0.5 4 346 13.7
2005-10-17 07:23:18 51°16.663 2°49.753 6 3.6 352 13.6
2005-10-17 07:23:22 51°16.667 2°49.752 11.4 3.5 354 13.7
2005-10-17 07:23:28 51°16.672 2°49.754 15.4 2.9 4 13.5
2005-10-17 07:23:32 51°16.674 2°49.754 22 2.7 8 13.4
2005-10-17 07:23:38 51°16.678 2°49.756 27.5 2.4 16 13.4
2005-10-17 07:23:42 51°16.68 2°49.758 32.6 2.4 16 13.4
2005-10-17 07:23:48 51°16.683 2°49.761 36.7 2.1 34 13.4
2005-10-17 07:23:52 51°16.685 2°49.763 41.5 2 40 13.4
2005-10-17 07:23:56 51°16.686 2°49.765 47.7 1.9 45 13.1
2005-10-17 07:24:02 51°16.688 2°49.769 52.4 1.9 55 13.1
2005-10-17 07:24:08 51°16.689 2°49.773 56.5 1.7 62 13.2
2005-10-17 07:24:12 51°16.689 2°49.776 61.6 1.7 74 13.2
2005-10-17 07:24:18 51°16.69 2°49.78 66 1.7 79 13.1
2005-10-17 07:24:22 51°16.69 2°49.783 70.1 1.7 81 13.1
2005-10-17 07:24:28 51°16.69 2°49.788 73.7 1.7 90 13.3
2005-10-17 07:24:32 51°16.689 2°49.792 79.2 1.9 100 13.3
2005-10-17 07:24:38 51°16.688 2°49.797 83.2 1.9 102 13.3
2005-10-17 07:24:43 51°16.687 2°49.801 87.3 1.9 109 13.4
2005-10-17 07:24:47 51°16.686 2°49.804 91.3 2 115 13.4
2005-10-17 07:24:52 51°16.685 2°49.808 95.6 2 120 13.4
2005-10-17 07:24:58 51°16.683 2°49.812 100 2 126 13.4
2005-10-17 07:25:02 51°16.682 2°49.814 102.6 1.9 134 13.4
2005-10-17 07:25:08 51°16.679 2°49.818 105.5 1.8 139 13.3
2005-10-17 07:25:12 51°16.678 2°49.819 107.3 1.5 142 13.3
2005-10-17 07:25:16 51°16.677 2°49.82 108.8 1.5 153 13.3
2005-10-17 07:25:22 51°16.675 2°49.821 111.3 1.4 155 13.4
2005-10-17 07:25:28 51°16.673 2°49.822 113 1.3 174 13.4
2005-10-17 07:25:32 51°16.671 2°49.822 115.9 1.2 182 13.5
2005-10-17 07:25:38 51°16.67 2°49.821 118.1 1.2 191 13.5
2005-10-17 07:25:42 51°16.668 2°49.82 120.6 1.2 193 13.5
2005-10-17 07:25:48 51°16.667 2°49.819 122.2 1.1 206 13.6
2005-10-17 07:25:52 51°16.666 2°49.818 124.4 1.2 209 13.6
2005-10-17 07:25:58 51°16.664 2°49.817 126 1.2 209 13.7
2005-10-17 07:26:03 51°16.662 2°49.815 127.1 1.3 213 13.8
2005-10-17 07:26:08 51°16.661 2°49.814 128.4 1.3 214 13.8
2005-10-17 07:26:12 51°16.66 2°49.813 129.6 1.3 212 13.7
2005-10-17 07:26:18 51°16.658 2°49.811 131.2 1.3 213 14
2005-10-17 07:26:23 51°16.656 2°49.809 132 1.3 211 14.1
2005-10-17 07:26:28 51°16.655 2°49.808 133.3 1.3 208 14.6
2005-10-17 07:26:32 51°16.653 2°49.807 134.9 1.4 201 15.2
2005-10-17 07:26:36 51°16.651 2°49.807 136.4 1.5 194 15.4
2005-10-17 07:26:43 51°16.648 2°49.805 137.9 1.6 198 15.4
2005-10-17 07:26:48 51°16.647 2°49.804 139.3 1.5 198 15
2005-10-17 07:26:52 51°16.645 2°49.803 141.3 1.6 203 14.5
2005-10-17 07:26:56 51°16.644 2°49.802 143.1 1.4 206 14.1
2005-10-17 07:27:02 51°16.641 2°49.799 144.5 1.5 214 13.7
2005-10-17 07:27:08 51°16.64 2°49.797 145.3 1.5 218 13.7
2005-10-17 07:27:12 51°16.639 2°49.794 147.6 1.5 218 13.7
2005-10-17 07:27:18 51°16.638 2°49.791 149.8 1.6 252 14.3
2005-10-17 07:27:22 51°16.638 2°49.787 151.6 1.6 258 15
2005-10-17 07:27:28 51°16.639 2°49.783 154.6 1.7 275 14.9
2005-10-17 07:27:32 51°16.64 2°49.779 157.3 2 289 -999
2005-10-17 07:27:38 51°16.642 2°49.774 160.4 2.2 298 -999
2005-10-17 07:27:43 51°16.644 2°49.77 162.6 2.4 305 -999
2005-10-17 07:27:48 51°16.646 2°49.765 165.3 2.6 307 -999
2005-10-17 07:27:53 51°16.649 2°49.761 166.5 2.6 314 -999
2005-10-17 07:27:58 51°16.651 2°49.757 167.7 2.5 310 -999
2005-10-17 07:28:03 51°16.653 2°49.754 168.7 2.3 311 7.7
2005-10-17 07:28:08 51°16.655 2°49.75 170.2 2.2 310 -999
2005-10-17 07:28:12 51°16.656 2°49.747 171.5 2.1 309 -999
2005-10-17 07:28:18 51°16.658 2°49.743 173.1 2 306 13.6
2005-10-17 07:28:22 51°16.659 2°49.74 174.2 1.9 307 13.6
2005-10-17 07:28:28 51°16.66 2°49.736 175.6 1.9 302 13.6
2005-10-17 07:28:32 51°16.661 2°49.734 177.5 1.9 302 13.6
2005-10-17 07:28:38 51°16.66 2°49.73 180.7 1.3 259 13.6
2005-10-17 07:28:43 51°16.658 2°49.727 183.3 1.4 250 13.6
2005-10-17 07:28:47 51°16.656 2°49.725 188.5 1.9 228 13.6
2005-10-17 07:28:52 51°16.654 2°49.721 192.5 2.5 220 13.7
2005-10-17 07:28:58 51°16.65 2°49.716 199.1 2.7 216 13.7
2005-10-17 07:29:03 51°16.645 2°49.711 204.1 3.5 214 13.7
2005-10-17 07:29:08 51°16.64 2°49.705 208.9 4.3 218 13.8
2005-10-17 07:29:12 51°16.636 2°49.7 212.4 4.5 216 13.8
2005-10-17 07:29:18 51°16.628 2°49.692 213.7 5.3 216 13.8
2005-10-17 07:29:23 51°16.621 2°49.684 213.8 5.8 215 13.8
2005-10-17 07:29:28 51°16.614 2°49.676 213.4 6 215 13.9
2005-10-17 07:29:32 51°16.607 2°49.669 212.5 6 215 13.9
2005-10-17 07:29:38 51°16.596 2°49.658 212 7.9 211 13.9
2005-10-17 07:29:42 51°16.587 2°49.649 211 8.9 213 14
2005-10-17 07:29:48 51°16.572 2°49.635 212.2 9.9 210 13.8
2005-10-17 07:29:52 51°16.562 2°49.624 211.8 10.7 213 13.8
2005-10-17 07:29:56 51°16.551 2°49.614 213.4 11.5 211 13.7
2005-10-17 07:30:02 51°16.534 2°49.596 212.3 12.4 213 13.6
2005-10-17 07:30:08 51°16.517 2°49.576 215.1 12.5 217 13.4
2005-10-17 07:30:12 51°16.505 2°49.562 217 13.2 216 13.3
2005-10-17 07:30:18 51°16.487 2°49.539 218.5 13.5 219 13.1
2005-10-17 07:30:23 51°16.473 2°49.52 221 13.4 219 13.2
2005-10-17 07:30:27 51°16.461 2°49.503 221.4 13.7 219 13.2
2005-10-17 07:30:32 51°16.446 2°49.482 223.5 14.1 222 13.1
2005-10-17 07:30:38 51°16.429 2°49.458 224.2 14 221 13.1
2005-10-17 07:30:43 51°16.414 2°49.437 223.8 14.1 220 13
2005-10-17 07:30:48 51°16.4 2°49.416 223.5 14.2 223 13.1
2005-10-17 07:30:52 51°16.388 2°49.4 224.7 14.1 221 13.1
2005-10-17 07:30:58 51°16.37 2°49.374 224.5 14.1 222 13.1
2005-10-17 07:31:02 51°16.358 2°49.358 224.2 14.3 221 12.9
2005-10-17 07:31:08 51°16.341 2°49.332 224.4 14.3 222 13
2005-10-17 07:31:12 51°16.329 2°49.316 224.6 14.2 220 12.8
2005-10-17 07:31:18 51°16.311 2°49.291 223.5 14.3 221 12.8
2005-10-17 07:31:23 51°16.296 2°49.271 223.5 14.1 220 12.7
2005-10-17 07:31:28 51°16.281 2°49.249 222.4 14.5 221 12.6
2005-10-17 07:31:32 51°16.269 2°49.232 224.3 14.3 224 12.7
2005-10-17 07:31:38 51°16.251 2°49.209 225.1 14.1 220 12.7
2005-10-17 07:31:43 51°16.236 2°49.188 222.6 14.4 222 12.5
2005-10-17 07:31:48 51°16.221 2°49.166 222.6 14.5 221 12.5
2005-10-17 07:31:52 51°16.209 2°49.15 224.6 14.1 222 12.5
2005-10-17 07:31:58 51°16.192 2°49.125 223.5 14.1 221 12.5
2005-10-17 07:32:02 51°16.179 2°49.109 223.5 14.3 220 12.3
2005-10-17 07:32:07 51°16.164 2°49.088 223 14.2 221 12.4
2005-10-17 07:32:12 51°16.149 2°49.068 222.8 14.3 219 12.4
2005-10-17 07:32:16 51°16.137 2°49.051 222.5 14.2 221 12.3
2005-10-17 07:32:22 51°16.119 2°49.028 222.1 14.1 220 12.3
2005-10-17 07:32:28 51°16.1 2°49.002 221.2 14.6 221 12.2
2005-10-17 07:32:32 51°16.088 2°48.986 222.7 14.3 220 12.2
2005-10-17 07:32:38 51°16.07 2°48.962 223.1 14.2 221 12.1
2005-10-17 07:32:42 51°16.058 2°48.945 222.1 14.4 221 12.1
2005-10-17 07:32:47 51°16.044 2°48.924 223.5 14.3 222 12
2005-10-17 07:32:52 51°16.029 2°48.903 224.2 14.2 221 12
2005-10-17 07:32:58 51°16.011 2°48.878 223 14.1 223 12.1
2005-10-17 07:33:02 51°15.999 2°48.862 223.6 14.3 220 11.9
2005-10-17 07:33:08 51°15.981 2°48.835 222.6 14.7 221 11.8
2005-10-17 07:33:12 51°15.969 2°48.819 224.7 14.1 222 11.9
2005-10-17 07:33:18 51°15.951 2°48.795 223.2 14 219 11.8
2005-10-17 07:33:23 51°15.936 2°48.773 221.4 14.6 222 11.7
2005-10-17 07:33:27 51°15.924 2°48.756 223.9 14.5 223 11.7
2005-10-17 07:33:32 51°15.91 2°48.735 224.3 14.3 221 11.6
2005-10-17 07:33:38 51°15.892 2°48.711 223.5 14.1 221 11.6
2005-10-17 07:33:43 51°15.877 2°48.689 223.3 14.3 223 11.5
2005-10-17 07:33:48 51°15.862 2°48.669 223.7 14.1 220 11.4
2005-10-17 07:33:52 51°15.851 2°48.653 222.9 14 221 11.4
2005-10-17 07:33:56 51°15.839 2°48.637 222.8 14.1 221 11.3
2005-10-17 07:34:02 51°15.821 2°48.612 222.8 14.2 221 11.2
2005-10-17 07:34:08 51°15.803 2°48.587 223 14.2 221 11.2
2005-10-17 07:34:12 51°15.792 2°48.571 223.4 14 221 11.1
2005-10-17 07:34:18 51°15.774 2°48.547 222.6 14 220 11
2005-10-17 07:34:22 51°15.762 2°48.53 222.5 14.1 222 11
2005-10-17 07:34:28 51°15.744 2°48.505 222.7 14.2 221 10.9
2005-10-17 07:34:32 51°15.732 2°48.489 223.2 14 221 10.8
2005-10-17 07:34:38 51°15.715 2°48.465 222.8 14 221 10.8
2005-10-17 07:34:42 51°15.703 2°48.448 222.3 14.3 221 10.7
2005-10-17 07:34:48 51°15.685 2°48.424 223.3 14.1 223 10.6
2005-10-17 07:34:52 51°15.673 2°48.408 222.9 13.9 220 10.4
2005-10-17 07:34:58 51°15.656 2°48.382 222.5 14.2 225 10.4
2005-10-17 07:35:03 51°15.641 2°48.363 224.1 13.9 220 10.3
2005-10-17 07:35:07 51°15.629 2°48.345 221.3 14.4 221 10.2
2005-10-17 07:35:12 51°15.614 2°48.325 223.8 14.1 221 10.2
2005-10-17 07:35:18 51°15.597 2°48.301 223.5 13.9 220 10.2
2005-10-17 07:35:23 51°15.582 2°48.28 222.2 14 221 10.1
2005-10-17 07:35:28 51°15.567 2°48.259 223.2 14.2 221 10.1
2005-10-17 07:35:32 51°15.556 2°48.242 222.8 14.3 223 10
2005-10-17 07:35:38 51°15.539 2°48.217 225 14.1 224 10
2005-10-17 07:35:42 51°15.527 2°48.201 225.1 13.9 221 9.9
2005-10-17 07:35:48 51°15.51 2°48.176 223.5 14 221 9.9
2005-10-17 07:35:52 51°15.498 2°48.161 224.1 13.9 219 9.8
2005-10-17 07:35:58 51°15.48 2°48.136 221.9 14 219 9.7
2005-10-17 07:36:03 51°15.465 2°48.117 221.3 14.1 220 9.7
2005-10-17 07:36:08 51°15.45 2°48.097 221.4 14 221 9.7
2005-10-17 07:36:12 51°15.438 2°48.082 221.6 13.9 219 9.7
2005-10-17 07:36:16 51°15.426 2°48.066 220.8 14 219 9.5
2005-10-17 07:36:22 51°15.408 2°48.042 220.6 14.1 220 9.5
2005-10-17 07:36:28 51°15.391 2°48.019 221.3 13.9 220 9.5
2005-10-17 07:36:32 51°15.379 2°48.003 221.1 13.9 220 9.5
2005-10-17 07:36:38 51°15.361 2°47.979 221 13.9 220 9.5
2005-10-17 07:36:42 51°15.35 2°47.963 222 13.9 222 9.3
2005-10-17 07:36:48 51°15.332 2°47.938 221.8 14 221 9.2
2005-10-17 07:36:52 51°15.32 2°47.923 222.8 13.8 220 9.3
2005-10-17 07:36:58 51°15.302 2°47.9 221.6 13.9 219 9.2
2005-10-17 07:37:02 51°15.291 2°47.883 221 14.1 221 9.2
2005-10-17 07:37:08 51°15.273 2°47.86 222.3 14 220 9.2
2005-10-17 07:37:12 51°15.261 2°47.844 221.3 13.6 220 9.1
2005-10-17 07:37:18 51°15.243 2°47.822 220.8 13.5 219 9.1
2005-10-17 07:37:23 51°15.228 2°47.801 219.6 14 218 9
2005-10-17 07:37:28 51°15.213 2°47.782 220.7 14.1 220 9
2005-10-17 07:37:32 51°15.201 2°47.766 221.3 14.1 220 9
2005-10-17 07:37:36 51°15.19 2°47.75 222 13.7 220 9.1
2005-10-17 07:37:43 51°15.169 2°47.724 221.4 13.5 219 9.2
2005-10-17 07:37:48 51°15.154 2°47.705 219.3 13.9 219 9.2
2005-10-17 07:37:52 51°15.141 2°47.69 219.8 14 218 9.2
2005-10-17 07:37:58 51°15.124 2°47.665 219.9 14.1 221 9.3
2005-10-17 07:38:02 51°15.112 2°47.649 221 14 221 9.4
2005-10-17 07:38:08 51°15.095 2°47.625 222.8 13.8 222 9.6
2005-10-17 07:38:12 51°15.083 2°47.61 222.2 13.8 219 9.6
2005-10-17 07:38:18 51°15.065 2°47.585 221.1 14.2 222 10
2005-10-17 07:38:23 51°15.05 2°47.565 222.4 14 219 10.1
2005-10-17 07:38:28 51°15.035 2°47.546 221.3 14 220 10.1
2005-10-17 07:38:32 51°15.024 2°47.529 220.7 14 219 10.6
2005-10-17 07:38:38 51°15.005 2°47.505 221.7 14.1 222 10.6
2005-10-17 07:38:42 51°14.994 2°47.489 221.3 14 219 10.9
2005-10-17 07:38:48 51°14.975 2°47.466 220.9 14.1 219 11.1
2005-10-17 07:38:52 51°14.964 2°47.449 220.5 14 221 11.2
2005-10-17 07:38:58 51°14.946 2°47.425 221.3 14.1 221 11.3
2005-10-17 07:39:02 51°14.934 2°47.408 221.9 14.2 221 11.4
2005-10-17 07:39:08 51°14.916 2°47.384 222.5 14.2 223 11.6
2005-10-17 07:39:12 51°14.904 2°47.368 222 14.1 219 11.6
2005-10-17 07:39:18 51°14.887 2°47.343 221.9 14 223 11.9
2005-10-17 07:39:22 51°14.875 2°47.327 222.4 13.9 219 11.9
2005-10-17 07:39:27 51°14.86 2°47.306 220.7 14.4 222 12
2005-10-17 07:39:32 51°14.846 2°47.284 223.2 14.4 224 12.1
2005-10-17 07:39:38 51°14.829 2°47.26 223.5 14 221 12.2
2005-10-17 07:39:42 51°14.817 2°47.243 222.7 13.8 222 12.3
2005-10-17 07:39:48 51°14.799 2°47.218 221.3 14.3 221 12.3
2005-10-17 07:39:52 51°14.787 2°47.2 221.3 14.6 224 12.3
2005-10-17 07:39:58 51°14.77 2°47.176 223.7 14.1 222 12.4
2005-10-17 07:40:02 51°14.758 2°47.159 222.6 14 221 12.4
2005-10-17 07:40:08 51°14.741 2°47.134 221.6 14 223 12.4
2005-10-17 07:40:12 51°14.729 2°47.118 222 14.4 220 12.3
2005-10-17 07:40:17 51°14.714 2°47.095 221.3 14.6 222 12.3
2005-10-17 07:40:23 51°14.697 2°47.071 223.9 14.2 223 12.4
2005-10-17 07:40:28 51°14.682 2°47.051 222.9 13.9 222 12.4
2005-10-17 07:40:32 51°14.67 2°47.034 220.7 14.4 219 12.4
2005-10-17 07:40:37 51°14.655 2°47.012 220.7 14.5 222 12.4
2005-10-17 07:40:43 51°14.638 2°46.988 222.6 14.1 220 12.4
2005-10-17 07:40:48 51°14.623 2°46.967 221.6 14 223 12.3
2005-10-17 07:40:52 51°14.611 2°46.951 221.9 14.1 220 12.3
2005-10-17 07:40:56 51°14.6 2°46.934 221.8 14.2 222 12.3
2005-10-17 07:41:02 51°14.582 2°46.91 221.3 14.4 221 12.3
2005-10-17 07:41:07 51°14.567 2°46.888 222 14.4 223 12.2
2005-10-17 07:41:12 51°14.553 2°46.868 223 14.2 223 12.2
2005-10-17 07:41:16 51°14.541 2°46.852 221.3 14 222 12.2
2005-10-17 07:41:22 51°14.522 2°46.827 220.6 14.3 221 12.1
2005-10-17 07:41:28 51°14.505 2°46.801 222.2 14.3 224 12.1
2005-10-17 07:41:32 51°14.492 2°46.786 221.8 14.1 217 12
2005-10-17 07:41:38 51°14.475 2°46.761 220.3 14.2 222 12
2005-10-17 07:41:43 51°14.46 2°46.74 221.7 14.1 222 11.8
2005-10-17 07:41:47 51°14.449 2°46.723 220.8 14.4 222 11.7
2005-10-17 07:41:52 51°14.434 2°46.703 222.5 14.2 221 11.6
2005-10-17 07:41:58 51°14.416 2°46.677 221.8 14.2 221 11.5
2005-10-17 07:42:03 51°14.401 2°46.657 221.9 14.1 221 11.5
2005-10-17 07:42:08 51°14.386 2°46.637 221.5 14 220 11.5
2005-10-17 07:42:12 51°14.374 2°46.62 220.5 14.3 221 11.3
2005-10-17 07:42:18 51°14.356 2°46.595 221.4 14.4 222 11.2
2005-10-17 07:42:23 51°14.342 2°46.575 222.4 14.3 221 11.1
2005-10-17 07:42:28 51°14.326 2°46.555 221.9 14 219 11
2005-10-17 07:42:32 51°14.315 2°46.538 220.5 14.2 221 10.9
2005-10-17 07:42:38 51°14.297 2°46.514 221.3 14.1 221 10.8
2005-10-17 07:42:42 51°14.285 2°46.497 221.9 14 221 10.7
2005-10-17 07:42:48 51°14.267 2°46.472 220.9 14.5 221 10.6
2005-10-17 07:42:52 51°14.256 2°46.455 222.1 14.3 223 10.6
2005-10-17 07:42:58 51°14.238 2°46.431 222.6 14.1 221 10.4
2005-10-17 07:43:03 51°14.223 2°46.41 221.6 14 223 10.4
2005-10-17 07:43:08 51°14.208 2°46.392 222 13.9 217 10.2
2005-10-17 07:43:12 51°14.196 2°46.374 219.7 14.4 221 10.1
2005-10-17 07:43:18 51°14.178 2°46.35 221.4 14.4 222 10.1
2005-10-17 07:43:22 51°14.166 2°46.334 221.7 14.3 219 9.9
2005-10-17 07:43:28 51°14.149 2°46.31 221.7 13.7 223 10
2005-10-17 07:43:32 51°14.136 2°46.295 221.9 13.6 218 9.8
2005-10-17 07:43:38 51°14.119 2°46.27 219.8 14.2 222 9.6
2005-10-17 07:43:42 51°14.106 2°46.254 220.9 14.4 219 9.5
2005-10-17 07:43:47 51°14.092 2°46.233 222.1 14.1 223 9.5
2005-10-17 07:43:52 51°14.077 2°46.213 222 13.9 220 9.3
2005-10-17 07:43:56 51°14.066 2°46.197 221.3 14.2 221 9.3
2005-10-17 07:44:02 51°14.049 2°46.172 223 13.9 222 9.2
2005-10-17 07:44:08 51°14.031 2°46.149 222.8 13.8 219 9.2
2005-10-17 07:44:12 51°14.019 2°46.132 220.9 14.3 222 9
2005-10-17 07:44:18 51°14.001 2°46.108 222.2 14.1 221 9
2005-10-17 07:44:22 51°13.988 2°46.093 220.9 14 217 8.9
2005-10-17 07:44:28 51°13.972 2°46.068 220 13.9 223 8.7
2005-10-17 07:44:32 51°13.96 2°46.054 222.8 13.6 218 8.8
2005-10-17 07:44:38 51°13.942 2°46.028 220.1 14.1 221 8.6
2005-10-17 07:44:42 51°13.93 2°46.012 222.7 14.2 223 8.8
2005-10-17 07:44:48 51°13.913 2°45.989 223.1 13.8 219 8.7
2005-10-17 07:44:52 51°13.901 2°45.974 221.1 13.8 220 8.6
2005-10-17 07:44:58 51°13.882 2°45.951 220.1 13.9 218 8.6
2005-10-17 07:45:03 51°13.867 2°45.933 220.1 13.7 220 8.5
2005-10-17 07:45:08 51°13.852 2°45.914 218.8 13.9 216 8.4
2005-10-17 07:45:12 51°13.841 2°45.897 218.8 13.9 222 8.5
2005-10-17 07:45:16 51°13.828 2°45.884 221.3 13.9 215 8.3
2005-10-17 07:45:22 51°13.811 2°45.859 219.2 14 218 8.3
2005-10-17 07:45:28 51°13.793 2°45.835 222 13.9 219 8.4
2005-10-17 07:45:32 51°13.781 2°45.819 221.9 13.9 221 8.3
2005-10-17 07:45:38 51°13.764 2°45.795 222.4 13.8 221 8.3
2005-10-17 07:45:42 51°13.752 2°45.78 222.9 13.8 221 8.1
2005-10-17 07:45:48 51°13.735 2°45.756 222.7 13.7 221 8.1
2005-10-17 07:45:52 51°13.723 2°45.741 221.3 13.9 218 7.9
2005-10-17 07:45:58 51°13.705 2°45.717 221.7 14 221 8.1
2005-10-17 07:46:02 51°13.693 2°45.702 222 13.9 217 8.1
2005-10-17 07:46:08 51°13.675 2°45.678 221 14 220 8.2
2005-10-17 07:46:12 51°13.663 2°45.662 221.8 13.9 220 8.2
2005-10-17 07:46:18 51°13.645 2°45.64 221.2 13.7 217 8.1
2005-10-17 07:46:22 51°13.633 2°45.624 220 13.9 220 8.5
2005-10-17 07:46:28 51°13.615 2°45.601 220.7 14 218 8.7
2005-10-17 07:46:32 51°13.603 2°45.585 220.5 14.1 219 8.7
2005-10-17 07:46:38 51°13.584 2°45.562 220.2 14.3 218 8.8
2005-10-17 07:46:43 51°13.569 2°45.542 219.9 14.2 219 8.8
2005-10-17 07:46:48 51°13.553 2°45.524 220.9 13.9 216 9.2
2005-10-17 07:46:52 51°13.541 2°45.507 218.8 14.4 220 9.5
2005-10-17 07:46:58 51°13.522 2°45.484 221 14.4 221 9.6
2005-10-17 07:47:02 51°13.51 2°45.468 221.1 14.2 219 9.7
2005-10-17 07:47:08 51°13.492 2°45.445 221 14.1 219 9.8
2005-10-17 07:47:12 51°13.48 2°45.428 220.5 14.3 219 10.1
2005-10-17 07:47:18 51°13.461 2°45.405 221.2 14.1 220 10.3
2005-10-17 07:47:22 51°13.449 2°45.389 220.8 14.1 219 10.1
2005-10-17 07:47:27 51°13.434 2°45.369 220.5 14.3 220 10.5
2005-10-17 07:47:32 51°13.419 2°45.349 221.9 14.3 220 10.5
2005-10-17 07:47:38 51°13.401 2°45.326 221.9 14 219 10.6
2005-10-17 07:47:43 51°13.386 2°45.305 220.7 14.3 220 10.7
2005-10-17 07:47:48 51°13.371 2°45.285 221.6 14.2 220 10.7
2005-10-17 07:47:52 51°13.359 2°45.27 221.7 13.9 220 10.9
2005-10-17 07:47:58 51°13.341 2°45.246 221.3 14.1 219 11
2005-10-17 07:48:02 51°13.329 2°45.229 220.9 14.3 221 11
2005-10-17 07:48:08 51°13.311 2°45.206 222.9 14 222 11.1
2005-10-17 07:48:12 51°13.299 2°45.191 221.4 13.7 218 11.1
2005-10-17 07:48:18 51°13.281 2°45.165 220.1 14.4 222 11.1
2005-10-17 07:48:23 51°13.266 2°45.146 223.4 14.1 222 11.2
2005-10-17 07:48:27 51°13.255 2°45.13 222 13.8 219 11.3
2005-10-17 07:48:32 51°13.239 2°45.111 221.3 14 219 11.3
2005-10-17 07:48:38 51°13.222 2°45.086 220.8 14.3 221 11.3
2005-10-17 07:48:42 51°13.209 2°45.071 221.9 14 219 11.3
2005-10-17 07:48:47 51°13.194 2°45.051 220.8 14.1 219 11.3
2005-10-17 07:48:52 51°13.18 2°45.031 221.3 14.2 221 11.4
2005-10-17 07:48:58 51°13.162 2°45.008 222.2 13.8 219 11.5
2005-10-17 07:49:02 51°13.15 2°44.992 220.5 14 220 11.4
2005-10-17 07:49:07 51°13.135 2°44.971 221.3 14.5 221 11.3
2005-10-17 07:49:12 51°13.12 2°44.95 222.9 14.4 222 11.3
2005-10-17 07:49:18 51°13.103 2°44.926 223.2 13.9 221 11.4
2005-10-17 07:49:22 51°13.091 2°44.91 222.9 13.8 221 11.5
2005-10-17 07:49:28 51°13.073 2°44.886 221.4 14.2 220 11.4
2005-10-17 07:49:32 51°13.061 2°44.869 221.5 14.3 222 11.4
2005-10-17 07:49:38 51°13.043 2°44.845 222.5 14.1 220 11.4
2005-10-17 07:49:43 51°13.029 2°44.825 222.8 14 221 11.5
2005-10-17 07:49:48 51°13.014 2°44.804 222.1 14.1 221 11.6
2005-10-17 07:49:52 51°13.002 2°44.789 222.2 14 221 11.7
2005-10-17 07:49:56 51°12.99 2°44.773 221.5 14.2 220 11.6
2005-10-17 07:50:02 51°12.972 2°44.748 221.7 14.3 221 11.6
2005-10-17 07:50:07 51°12.957 2°44.728 222.1 14.2 220 11.6
2005-10-17 07:50:12 51°12.942 2°44.708 222 14.1 222 11.7
2005-10-17 07:50:16 51°12.93 2°44.692 221.6 14.1 220 11.6
2005-10-17 07:50:22 51°12.913 2°44.666 222.2 14.3 223 11.7
2005-10-17 07:50:28 51°12.895 2°44.642 223.6 14.1 219 11.7
2005-10-17 07:50:32 51°12.884 2°44.625 222.5 14.1 223 11.7
2005-10-17 07:50:36 51°12.872 2°44.608 223.5 14.2 222 11.7
2005-10-17 07:50:42 51°12.854 2°44.582 224.2 14.3 223 11.7
2005-10-17 07:50:48 51°12.837 2°44.557 224.8 14.1 223 11.8
2005-10-17 07:50:52 51°12.825 2°44.539 224.4 14.2 222 11.7
2005-10-17 07:50:56 51°12.814 2°44.522 224.1 14.4 223 11.6
2005-10-17 07:51:02 51°12.797 2°44.496 225.2 14.2 224 11.7
2005-10-17 07:51:08 51°12.779 2°44.471 225.1 14.2 221 11.6
2005-10-17 07:51:12 51°12.767 2°44.453 223.8 14.4 224 11.5
2005-10-17 07:51:18 51°12.75 2°44.427 225.4 14.2 223 11.5
2005-10-17 07:51:22 51°12.738 2°44.41 224.9 14.3 223 11.5
2005-10-17 07:51:28 51°12.721 2°44.383 224.8 14.3 224 11.4
2005-10-17 07:51:32 51°12.709 2°44.367 225.7 14 221 11.5
2005-10-17 07:51:38 51°12.692 2°44.341 224 14.3 223 11.5
2005-10-17 07:51:42 51°12.68 2°44.324 224.2 14.3 223 11.3
2005-10-17 07:51:48 51°12.663 2°44.299 224.3 14.1 223 11.4
2005-10-17 07:51:52 51°12.651 2°44.283 224 14 220 11.5
2005-10-17 07:51:56 51°12.64 2°44.266 222.8 14.1 224 11.5
2005-10-17 07:52:02 51°12.622 2°44.242 224.3 13.9 221 11.3
2005-10-17 07:52:08 51°12.605 2°44.216 223.8 14.2 223 11.2
2005-10-17 07:52:12 51°12.593 2°44.198 224 14.3 223 11.3